createdAt,value
2018-12-05T00:00:30.643Z,44.29
2018-12-05T00:02:56.681Z,44.22
2018-12-05T00:05:22.760Z,45.02
2018-12-05T00:07:48.830Z,44.35
2018-12-05T00:10:14.910Z,44.49
2018-12-05T00:12:40.958Z,44.30
2018-12-05T00:15:07.011Z,44.60
2018-12-05T00:17:33.695Z,44.52
2018-12-05T00:19:59.983Z,44.17
2018-12-05T00:22:26.012Z,44.17
2018-12-05T00:24:52.056Z,44.41
2018-12-05T00:27:18.098Z,44.51
2018-12-05T00:29:44.141Z,44.58
2018-12-05T00:32:10.195Z,44.46
2018-12-05T00:34:36.244Z,44.44
2018-12-05T00:37:02.284Z,44.47
2018-12-05T00:39:28.328Z,44.10
2018-12-05T00:41:54.399Z,44.77
2018-12-05T00:44:21.175Z,44.78
2018-12-05T00:46:47.293Z,44.33
2018-12-05T00:49:13.401Z,44.70
2018-12-05T00:51:39.554Z,44.37
2018-12-05T00:54:05.651Z,44.91
2018-12-05T00:56:31.707Z,45.04
2018-12-05T00:58:58.128Z,45.02
2018-12-05T01:01:24.180Z,44.70
2018-12-05T01:03:50.257Z,44.83
2018-12-05T01:06:16.323Z,45.06
2018-12-05T01:08:42.364Z,44.87
2018-12-05T01:11:08.416Z,44.85
2018-12-05T01:13:34.436Z,44.47
2018-12-05T01:16:00.470Z,44.76
2018-12-05T01:18:26.493Z,44.82
2018-12-05T01:23:24.389Z,45.16
2018-12-05T01:25:50.436Z,44.97
2018-12-05T01:28:16.457Z,45.10
2018-12-05T01:30:42.500Z,45.19
2018-12-05T01:33:08.535Z,44.80
2018-12-05T01:35:34.555Z,44.56
2018-12-05T01:38:00.578Z,45.36
2018-12-05T01:40:26.672Z,45.51
2018-12-05T01:42:52.743Z,45.21
2018-12-05T01:45:18.800Z,45.60
2018-12-05T01:47:44.866Z,44.54
2018-12-05T01:50:10.951Z,44.76
2018-12-05T01:52:37.012Z,44.64
2018-12-05T01:55:03.206Z,45.42
2018-12-05T01:57:29.316Z,45.72
2018-12-05T01:59:55.415Z,45.23
2018-12-05T02:02:21.454Z,45.10
2018-12-05T02:04:47.608Z,45.05
2018-12-05T02:07:13.744Z,45.55
2018-12-05T02:09:39.808Z,45.66
2018-12-05T02:12:05.863Z,45.59
2018-12-05T02:14:31.938Z,46.07
2018-12-05T02:16:57.989Z,46.10
2018-12-05T02:19:24.042Z,45.70
2018-12-05T02:21:50.087Z,45.39
2018-12-05T02:24:16.140Z,45.72
2018-12-05T02:26:42.217Z,45.30
2018-12-05T02:29:08.297Z,45.69
2018-12-05T02:31:35.146Z,45.93
2018-12-05T02:34:01.288Z,46.02
2018-12-05T02:36:27.393Z,45.96
2018-12-05T02:38:53.461Z,45.59
2018-12-05T02:41:19.522Z,45.49
2018-12-05T02:43:45.600Z,45.67
2018-12-05T02:46:11.816Z,45.30
2018-12-05T02:48:37.938Z,45.30
2018-12-05T02:51:04.076Z,45.46
2018-12-05T02:53:30.229Z,45.40
2018-12-05T02:55:56.470Z,45.82
2018-12-05T02:58:22.585Z,45.65
2018-12-05T03:00:48.691Z,45.16
2018-12-05T03:03:14.820Z,45.78
2018-12-05T03:05:41.011Z,45.56
2018-12-05T03:08:07.098Z,45.81
2018-12-05T03:10:33.283Z,45.77
2018-12-05T03:13:00.281Z,45.84
2018-12-05T03:15:26.408Z,46.10
2018-12-05T03:17:52.534Z,46.66
2018-12-05T03:20:18.643Z,46.29
2018-12-05T03:22:44.723Z,46.68
2018-12-05T03:25:10.820Z,46.75
2018-12-05T03:27:36.857Z,46.29
2018-12-05T03:30:02.943Z,46.59
2018-12-05T03:32:29.099Z,46.89
2018-12-05T03:34:55.226Z,47.07
2018-12-05T03:37:21.375Z,46.96
2018-12-05T03:39:47.477Z,46.42
2018-12-05T03:42:14.295Z,46.46
2018-12-05T03:44:40.367Z,46.50
2018-12-05T03:47:06.530Z,46.67
2018-12-05T03:49:33.187Z,46.05
2018-12-05T03:51:59.294Z,46.37
2018-12-05T03:54:27.387Z,46.22
2018-12-05T03:56:53.457Z,45.83
2018-12-05T03:59:19.562Z,46.66
2018-12-05T04:01:45.670Z,47.02
2018-12-05T04:04:11.696Z,47.21
2018-12-05T04:06:37.787Z,47.23
2018-12-05T04:09:03.840Z,47.27
2018-12-05T04:11:29.868Z,47.27
2018-12-05T04:13:55.897Z,47.23
2018-12-05T04:16:22.021Z,47.25
2018-12-05T04:18:48.058Z,47.55
2018-12-05T04:21:14.110Z,46.83
2018-12-05T04:23:40.217Z,47.08
2018-12-05T04:26:06.308Z,46.16
2018-12-05T04:28:32.371Z,46.87
2018-12-05T04:30:58.534Z,46.94
2018-12-05T04:35:56.374Z,46.73
2018-12-05T04:38:22.540Z,47.51
2018-12-05T04:40:48.595Z,47.44
2018-12-05T04:43:14.649Z,48.11
2018-12-05T04:45:42.613Z,47.97
2018-12-05T04:48:08.794Z,49.08
2018-12-05T04:50:34.842Z,49.02
2018-12-05T04:55:37.004Z,49.24
2018-12-05T04:58:03.010Z,49.60
2018-12-05T05:00:29.124Z,49.72
2018-12-05T05:02:55.114Z,49.23
2018-12-05T05:05:21.148Z,50.70
2018-12-05T05:15:22.174Z,51.22
2018-12-05T05:17:48.468Z,52.05
2018-12-05T05:20:14.466Z,51.25
2018-12-05T05:22:42.005Z,50.61
2018-12-05T05:25:08.013Z,51.27
2018-12-05T05:27:34.041Z,50.03
2018-12-05T05:30:00.732Z,50.38
2018-12-05T05:32:26.923Z,51.31
2018-12-05T05:34:52.925Z,50.07
2018-12-05T05:37:18.999Z,50.38
2018-12-05T05:39:45.096Z,51.31
2018-12-05T05:42:11.113Z,52.29
2018-12-05T05:44:37.165Z,52.09
2018-12-05T05:47:03.187Z,52.60
2018-12-05T05:49:29.197Z,52.58
2018-12-05T05:51:55.292Z,52.84
2018-12-05T05:54:21.312Z,52.11
2018-12-05T05:56:47.334Z,51.74
2018-12-05T05:59:13.314Z,52.42
2018-12-05T06:01:39.356Z,52.67
2018-12-05T06:04:05.358Z,52.43
2018-12-05T06:06:31.367Z,51.60
2018-12-05T06:08:57.384Z,51.23
2018-12-05T06:11:23.473Z,51.66
2018-12-05T06:13:49.507Z,50.79
2018-12-05T06:16:15.506Z,52.13
2018-12-05T06:18:41.477Z,52.46
2018-12-05T06:21:07.450Z,52.32
2018-12-05T06:23:33.518Z,50.74
2018-12-05T06:25:59.493Z,50.19
2018-12-05T06:28:25.446Z,49.80
2018-12-05T06:30:51.470Z,50.15
2018-12-05T06:33:17.478Z,51.09
2018-12-05T06:35:43.511Z,51.56
2018-12-05T06:38:09.489Z,51.37
2018-12-05T06:40:35.523Z,51.14
2018-12-05T06:43:01.526Z,52.40
2018-12-05T06:45:27.525Z,52.03
2018-12-05T06:47:53.497Z,51.54
2018-12-05T06:50:19.492Z,52.30
2018-12-05T06:52:45.489Z,52.08
2018-12-05T06:55:11.480Z,52.52
2018-12-05T06:57:37.474Z,52.21
2018-12-05T07:00:03.475Z,51.52
2018-12-05T07:02:29.498Z,51.07
2018-12-05T07:04:58.513Z,51.24
2018-12-05T07:07:24.510Z,51.56
2018-12-05T07:09:50.457Z,51.85
2018-12-05T07:12:16.436Z,52.04
2018-12-05T07:14:42.424Z,52.50
2018-12-05T07:17:08.424Z,52.74
2018-12-05T07:19:34.420Z,52.96
2018-12-05T07:22:00.402Z,52.61
2018-12-05T07:24:26.370Z,53.00
2018-12-05T07:26:52.364Z,52.45
2018-12-05T07:29:18.364Z,54.00
2018-12-05T07:31:44.357Z,54.20
2018-12-05T07:34:10.363Z,54.68
2018-12-05T07:36:36.413Z,52.70
2018-12-05T07:39:02.435Z,51.85
2018-12-05T07:41:28.437Z,51.19
2018-12-05T07:43:54.457Z,52.16
2018-12-05T07:46:20.497Z,52.12
2018-12-05T07:48:46.553Z,52.59
2018-12-05T07:51:12.553Z,51.99
2018-12-05T07:53:38.563Z,52.65
2018-12-05T07:56:04.592Z,52.16
2018-12-05T07:58:30.629Z,51.53
2018-12-05T08:00:56.609Z,51.78
2018-12-05T08:03:22.606Z,51.99
2018-12-05T08:05:48.588Z,50.81
2018-12-05T08:08:14.621Z,50.25
2018-12-05T08:10:40.666Z,50.27
2018-12-05T08:13:06.675Z,51.86
2018-12-05T08:15:32.674Z,51.17
2018-12-05T08:17:59.869Z,50.99
2018-12-05T08:20:25.884Z,51.63
2018-12-05T08:22:51.861Z,50.86
2018-12-05T08:25:17.942Z,50.70
2018-12-05T08:27:43.937Z,50.23
2018-12-05T08:30:09.949Z,50.18
2018-12-05T08:32:35.961Z,48.83
2018-12-05T08:35:01.975Z,50.00
2018-12-05T08:37:28.008Z,49.72
2018-12-05T08:39:54.007Z,49.62
2018-12-05T08:42:20.036Z,50.09
2018-12-05T08:44:46.055Z,49.92
2018-12-05T08:47:12.234Z,48.78
2018-12-05T08:49:38.238Z,48.53
2018-12-05T09:19:53.440Z,47.47
2018-12-05T09:22:20.390Z,46.55
2018-12-05T09:24:46.437Z,46.82
2018-12-05T09:27:12.472Z,47.73
2018-12-05T09:29:38.452Z,46.72
2018-12-05T09:32:04.423Z,46.04
2018-12-05T09:34:30.420Z,45.89
2018-12-05T09:36:56.418Z,46.28
2018-12-05T09:39:22.511Z,47.07
2018-12-05T09:41:48.595Z,46.52
2018-12-05T09:44:15.357Z,46.42
2018-12-05T09:46:42.811Z,47.21
2018-12-05T09:49:09.060Z,46.65
2018-12-05T09:51:35.912Z,45.50
2018-12-05T09:54:02.801Z,46.27
2018-12-05T09:56:28.767Z,45.75
2018-12-05T09:58:54.742Z,46.07
2018-12-05T10:01:20.717Z,45.33
2018-12-05T10:03:46.699Z,46.30
2018-12-05T10:06:12.689Z,45.76
2018-12-05T10:08:38.756Z,44.39
2018-12-05T10:11:04.713Z,44.25
2018-12-05T10:13:30.685Z,46.33
2018-12-05T10:15:57.512Z,47.03
2018-12-05T10:18:23.495Z,45.75
2018-12-05T10:20:55.830Z,44.98
2018-12-05T10:23:17.635Z,45.38
2018-12-05T10:25:43.737Z,45.18
2018-12-05T10:28:09.763Z,46.43
2018-12-05T10:30:35.819Z,46.24
2018-12-05T10:33:01.822Z,46.53
2018-12-05T10:35:27.795Z,46.21
2018-12-05T10:37:54.492Z,46.86
2018-12-05T10:40:20.791Z,46.35
2018-12-05T10:42:46.808Z,45.90
2018-12-05T10:45:12.788Z,46.03
2018-12-05T10:47:39.712Z,45.81
2018-12-05T10:50:05.746Z,45.94
2018-12-05T10:52:31.709Z,46.29
2018-12-05T10:54:57.728Z,45.58
2018-12-05T10:57:23.773Z,45.55
2018-12-05T10:59:49.864Z,45.04
2018-12-05T11:02:15.872Z,45.65
2018-12-05T11:04:41.928Z,46.87
2018-12-05T11:07:07.977Z,46.65
2018-12-05T11:09:33.979Z,44.35
2018-12-05T11:11:59.998Z,45.25
2018-12-05T11:14:26.069Z,45.77
2018-12-05T11:16:52.037Z,45.02
2018-12-05T11:19:18.029Z,44.38
2018-12-05T11:21:49.676Z,44.96
2018-12-05T11:24:12.058Z,44.50
2018-12-05T11:26:38.082Z,44.68
2018-12-05T11:29:04.134Z,44.99
2018-12-05T11:31:30.127Z,44.58
2018-12-05T11:33:56.120Z,44.89
2018-12-05T11:36:22.117Z,45.44
2018-12-05T11:38:48.116Z,45.20
2018-12-05T11:41:14.149Z,45.13
2018-12-05T11:43:40.185Z,44.33
2018-12-05T11:46:06.193Z,44.51
2018-12-05T11:48:32.182Z,44.30
2018-12-05T11:50:58.214Z,43.42
2018-12-05T11:53:24.256Z,42.37
2018-12-05T11:55:50.365Z,42.21
2018-12-05T11:58:17.500Z,42.88
2018-12-05T12:00:43.537Z,43.43
2018-12-05T12:03:09.581Z,42.98
2018-12-05T12:05:35.630Z,43.41
2018-12-05T12:08:01.678Z,44.11
2018-12-05T12:10:27.732Z,44.13
2018-12-05T12:12:53.815Z,44.35
2018-12-05T12:15:19.923Z,43.17
2018-12-05T12:17:46.005Z,42.95
2018-12-05T12:20:13.915Z,43.88
2018-12-05T12:22:40.007Z,43.76
2018-12-05T12:25:06.141Z,42.79
2018-12-05T12:27:32.186Z,41.91
2018-12-05T12:29:58.229Z,41.60
2018-12-05T12:32:24.235Z,43.79
2018-12-05T12:34:50.316Z,43.45
2018-12-05T12:37:16.342Z,43.66
2018-12-05T12:39:42.404Z,44.30
2018-12-05T12:42:08.462Z,42.49
2018-12-05T12:44:34.595Z,42.02
2018-12-05T12:47:00.705Z,43.26
2018-12-05T12:49:26.942Z,42.94
2018-12-05T12:51:53.064Z,43.07
2018-12-05T12:54:19.159Z,44.62
2018-12-05T12:56:45.225Z,43.77
2018-12-05T12:59:11.273Z,43.48
2018-12-05T13:01:37.313Z,43.97
2018-12-05T13:04:05.844Z,42.76
2018-12-05T13:06:31.885Z,43.34
2018-12-05T13:08:59.180Z,44.05
2018-12-05T13:11:25.326Z,42.69
2018-12-05T13:13:52.252Z,42.05
2018-12-05T13:16:19.562Z,41.78
2018-12-05T13:18:45.662Z,42.18
2018-12-05T13:21:11.718Z,42.44
2018-12-05T13:23:37.824Z,44.37
2018-12-05T13:26:03.916Z,43.07
2018-12-05T13:28:30.030Z,42.77
2018-12-05T13:30:56.281Z,42.17
2018-12-05T13:33:22.344Z,41.63
2018-12-05T13:35:48.371Z,42.62
2018-12-05T13:38:14.551Z,44.67
2018-12-05T13:45:49.700Z,42.91
2018-12-05T13:48:20.222Z,42.70
2018-12-05T13:55:50.368Z,42.63
2018-12-05T14:08:23.617Z,42.50
2018-12-05T14:13:26.339Z,40.88
2018-12-05T14:23:28.526Z,41.37
2018-12-05T14:25:58.033Z,39.88
2018-12-05T14:33:29.573Z,40.13
2018-12-05T14:41:02.144Z,39.91
2018-12-05T14:43:28.224Z,39.41
2018-12-05T14:45:59.897Z,39.62
2018-12-05T14:53:29.989Z,38.11
2018-12-05T14:58:28.516Z,38.42
2018-12-05T15:00:57.608Z,39.14
2018-12-05T15:03:24.604Z,40.10
2018-12-05T15:10:54.162Z,41.20
2018-12-05T15:13:22.284Z,40.87
2018-12-05T15:15:49.420Z,40.67
2018-12-05T15:18:15.662Z,40.15
2018-12-05T15:20:42.754Z,39.78
2018-12-05T15:23:09.825Z,40.71
2018-12-05T15:25:37.137Z,41.11
2018-12-05T15:28:07.416Z,40.78
2018-12-05T15:30:34.432Z,40.23
2018-12-05T15:33:01.744Z,40.54
2018-12-05T15:35:28.876Z,42.21
2018-12-05T15:37:58.844Z,43.49
2018-12-05T15:40:29.277Z,43.26
2018-12-05T15:42:56.536Z,43.42
2018-12-05T15:45:22.668Z,43.39
2018-12-05T15:50:25.571Z,42.72
2018-12-05T15:52:52.691Z,43.68
2018-12-05T15:57:53.682Z,43.53
2018-12-05T16:00:19.675Z,44.73
2018-12-05T16:02:46.767Z,44.38
2018-12-05T16:05:13.999Z,44.22
2018-12-05T16:07:45.841Z,44.12
2018-12-05T16:12:44.574Z,45.28
2018-12-05T16:15:16.698Z,44.96
2018-12-05T16:17:44.980Z,45.20
2018-12-05T16:22:44.162Z,44.91
2018-12-05T16:25:10.268Z,44.46
2018-12-05T16:27:36.347Z,43.97
2018-12-05T16:30:02.395Z,43.79
2018-12-05T16:32:28.651Z,43.69
2018-12-05T16:34:54.684Z,41.95
2018-12-05T16:37:20.723Z,40.83
2018-12-05T16:39:46.831Z,40.51
2018-12-05T16:42:12.885Z,40.64
2018-12-05T16:44:39.749Z,41.92
2018-12-05T16:47:06.431Z,41.87
2018-12-05T16:49:32.424Z,41.91
2018-12-05T16:51:58.439Z,42.61
2018-12-05T16:54:26.541Z,42.70
2018-12-05T16:56:52.515Z,43.35
2018-12-05T16:59:21.684Z,43.90
2018-12-05T17:01:47.803Z,43.49
2018-12-05T17:04:14.814Z,44.24
2018-12-05T17:06:40.805Z,44.32
2018-12-05T17:09:06.787Z,44.06
2018-12-05T17:11:33.030Z,42.92
2018-12-05T17:13:59.676Z,44.01
2018-12-05T17:16:26.576Z,43.27
2018-12-05T17:18:52.575Z,43.33
2018-12-05T17:21:18.612Z,44.11
2018-12-05T17:26:16.079Z,45.66
2018-12-05T17:28:42.112Z,46.02
2018-12-05T17:31:13.875Z,45.74
2018-12-05T17:33:39.930Z,46.58
2018-12-05T17:36:06.096Z,46.49
2018-12-05T17:38:32.333Z,46.37
2018-12-05T17:40:58.354Z,46.66
2018-12-05T17:43:24.325Z,46.70
2018-12-05T17:45:50.370Z,45.79
2018-12-05T17:48:16.427Z,45.92
2018-12-05T17:50:42.384Z,46.11
2018-12-05T17:53:08.480Z,46.92
2018-12-05T17:55:36.050Z,47.50
2018-12-05T18:00:36.247Z,47.14
2018-12-05T18:03:02.255Z,45.81
2018-12-05T18:05:33.389Z,44.70
2018-12-05T18:07:59.374Z,44.77
2018-12-05T18:10:25.735Z,43.73
2018-12-05T18:12:51.731Z,46.59
2018-12-05T18:15:17.843Z,45.88
2018-12-05T18:17:43.807Z,45.61
2018-12-05T18:20:09.801Z,45.08
2018-12-05T18:22:35.798Z,43.55
2018-12-05T18:25:02.398Z,45.02
2018-12-05T18:27:28.398Z,44.53
2018-12-05T18:29:54.362Z,45.73
2018-12-05T18:32:20.412Z,44.90
2018-12-05T18:34:49.671Z,45.95
2018-12-05T18:37:15.637Z,46.05
2018-12-05T18:39:41.638Z,45.29
2018-12-05T18:42:07.611Z,44.60
2018-12-05T18:44:33.600Z,44.76
2018-12-05T18:47:00.602Z,45.95
2018-12-05T18:49:26.726Z,44.47
2018-12-05T18:57:09.248Z,44.48
2018-12-05T18:59:29.914Z,44.87
2018-12-05T19:01:56.003Z,45.33
2018-12-05T19:04:22.146Z,45.69
2018-12-05T19:06:48.124Z,44.38
2018-12-05T19:09:14.127Z,44.68
2018-12-05T19:11:40.288Z,46.04
2018-12-05T19:14:06.282Z,45.96
2018-12-05T19:16:32.358Z,46.69
2018-12-05T19:18:58.345Z,46.45
2018-12-05T19:21:24.609Z,45.95
2018-12-05T19:26:22.516Z,46.00
2018-12-05T19:28:48.721Z,46.57
2018-12-05T19:31:19.376Z,46.84
2018-12-05T19:33:42.755Z,47.34
2018-12-05T19:36:10.767Z,47.88
2018-12-05T19:41:09.592Z,45.30
2018-12-05T19:43:35.842Z,44.89
2018-12-05T19:46:01.914Z,45.97
2018-12-05T19:48:27.863Z,47.17
2018-12-05T19:50:54.561Z,46.60
2018-12-05T19:53:22.570Z,45.84
2018-12-05T19:55:48.584Z,44.84
2018-12-05T19:58:14.564Z,46.30
2018-12-05T20:03:12.632Z,47.26
2018-12-05T20:05:38.582Z,46.75
2018-12-05T20:08:04.601Z,47.13
2018-12-05T20:10:30.608Z,47.53
2018-12-05T20:12:56.842Z,48.54
2018-12-05T20:15:22.885Z,49.08
2018-12-05T20:25:23.318Z,48.25
2018-12-05T20:27:49.282Z,50.68
2018-12-05T20:30:16.376Z,49.91
2018-12-05T20:32:42.386Z,49.88
2018-12-05T20:35:08.427Z,48.59
2018-12-05T20:37:34.652Z,47.67
2018-12-05T20:40:00.723Z,49.83
2018-12-05T20:44:58.702Z,47.78
2018-12-05T20:47:24.654Z,48.27
2018-12-05T20:49:50.636Z,47.25
2018-12-05T20:52:16.632Z,47.79
2018-12-05T20:54:42.745Z,47.82
2018-12-05T20:57:08.713Z,48.00
2018-12-05T20:59:34.684Z,48.01
2018-12-05T21:02:00.657Z,48.27
2018-12-05T21:04:26.626Z,51.02
2018-12-05T21:06:59.383Z,50.72
2018-12-05T21:09:25.431Z,50.76
2018-12-05T21:11:51.864Z,50.40
2018-12-05T21:14:17.876Z,50.41
2018-12-05T21:16:44.931Z,52.35
2018-12-05T21:19:10.912Z,51.49
2018-12-05T21:21:36.920Z,50.52
2018-12-05T21:26:34.797Z,50.79
2018-12-05T21:29:00.764Z,49.57
2018-12-05T21:31:26.740Z,51.24
2018-12-05T21:33:52.709Z,51.18
2018-12-05T21:36:18.678Z,52.61
2018-12-05T21:51:26.785Z,52.04
2018-12-05T21:53:52.736Z,53.06
2018-12-05T21:56:18.718Z,53.14
2018-12-05T21:58:44.691Z,50.95
2018-12-05T22:01:10.654Z,50.83
2018-12-05T22:08:41.168Z,53.26
2018-12-05T22:11:07.166Z,54.11
2018-12-05T22:13:33.115Z,53.28
2018-12-05T22:15:59.372Z,53.94
2018-12-05T22:18:25.380Z,54.25
2018-12-05T22:20:51.359Z,55.92
2018-12-05T22:25:49.267Z,53.68
2018-12-05T22:28:15.249Z,53.94
2018-12-05T22:30:41.236Z,53.30
2018-12-05T22:33:07.183Z,52.69
2018-12-05T22:35:33.157Z,52.86
2018-12-05T22:37:59.158Z,51.57
2018-12-05T22:40:25.245Z,52.35
2018-12-05T22:42:51.202Z,51.27
2018-12-05T22:45:17.152Z,51.22
2018-12-05T22:47:43.118Z,52.54
2018-12-05T22:50:09.065Z,52.01
2018-12-05T22:52:35.031Z,53.22
2018-12-05T22:55:00.988Z,53.62
2018-12-05T22:57:26.944Z,55.04
2018-12-05T22:59:52.935Z,54.08
2018-12-05T23:02:18.918Z,53.38
2018-12-05T23:04:44.895Z,53.30
2018-12-05T23:07:10.867Z,53.70
2018-12-05T23:09:36.813Z,54.31
2018-12-05T23:12:02.791Z,53.40
2018-12-05T23:14:28.759Z,53.11
2018-12-05T23:16:54.751Z,52.40
2018-12-05T23:19:20.713Z,50.88
2018-12-05T23:24:19.069Z,48.86
2018-12-05T23:26:45.156Z,49.28
2018-12-05T23:29:11.129Z,47.51
2018-12-05T23:31:37.149Z,47.01
2018-12-05T23:34:03.274Z,47.11
2018-12-05T23:36:29.256Z,47.27
2018-12-05T23:38:55.267Z,47.45
2018-12-05T23:41:21.334Z,48.76
2018-12-05T23:43:47.321Z,47.46
2018-12-05T23:46:13.279Z,47.11
2018-12-05T23:48:39.262Z,46.48
2018-12-05T23:51:05.227Z,46.88
2018-12-05T23:53:31.207Z,47.49
2018-12-05T23:55:57.171Z,47.73
2018-12-05T23:58:23.136Z,46.99
